Time;durP1;ratioP1;P1;durP2;ratioP2;P2;SDS_P1;SDS_P2;PMS_P1;PMS_P2;Temp;Humidity;BMP_temperature;BMP_pressure;BME280_temperature;BME280_humidity;BME280_pressure;Samples;Min_cycle;Max_cycle;Signal;HPM_P1;HPM_P2
2023/05/03 00:00:47;;;;;;;3.20;2.33;;;;;;;11.71;nan;60870.50;4973865;28;20646;-66
2023/05/03 00:03:13;;;;;;;2.88;2.15;;;;;;;11.43;nan;60808.88;4974813;28;20228;-67
2023/05/03 00:05:38;;;;;;;2.92;2.28;;;;;;;11.44;nan;60777.31;4974088;28;20590;-66
2023/05/03 00:08:04;;;;;;;2.10;1.88;;;;;;;11.44;nan;60813.13;4973696;28;20186;-67
2023/05/03 00:10:29;;;;;;;3.13;2.38;;;;;;;11.67;nan;60822.50;4974011;28;20170;-66
2023/05/03 00:12:55;;;;;;;2.83;2.08;;;;;;;11.33;nan;60830.88;4972696;28;20184;-66
2023/05/03 00:15:21;;;;;;;4.50;2.35;;;;;;;11.59;nan;60990.00;4973493;28;20197;-67
2023/05/03 00:17:46;;;;;;;6.57;2.38;;;;;;;11.64;nan;60873.41;4974494;28;20170;-67
2023/05/03 00:20:12;;;;;;;2.17;1.98;;;;;;;11.44;nan;60945.53;4974034;28;20253;-65
2023/05/03 00:22:37;;;;;;;2.22;2.03;;;;;;;11.69;nan;60784.38;4973871;28;20649;-66
2023/05/03 00:25:03;;;;;;;2.38;2.10;;;;;;;11.61;nan;60841.31;4973677;28;20526;-66
2023/05/03 00:27:29;;;;;;;2.40;2.17;;;;;;;11.51;nan;60863.91;4973713;28;20177;-66
2023/05/03 00:29:54;;;;;;;2.55;2.20;;;;;;;11.62;nan;60814.88;4973898;28;20246;-67
2023/05/03 00:32:21;;;;;;;3.35;2.15;;;;;;;11.65;nan;60830.50;4974185;28;20241;-67
2023/05/03 00:34:52;;;;;;;3.05;2.08;;;;;;;11.79;nan;60848.81;4974069;28;20177;-66
2023/05/03 00:37:18;;;;;;;3.33;2.53;;;;;;;11.50;nan;60826.97;4973492;28;20169;-65
2023/05/03 00:39:43;;;;;;;4.85;2.90;;;;;;;11.33;nan;60823.19;4973633;28;20640;-67
2023/05/03 00:42:08;;;;;;;3.78;2.65;;;;;;;11.68;nan;60867.13;4973265;28;20177;-66
2023/05/03 00:44:34;;;;;;;3.88;2.35;;;;;;;11.43;nan;60829.88;4978280;28;20257;-64
2023/05/03 00:47:00;;;;;;;3.40;2.30;;;;;;;11.71;nan;60798.84;4975577;28;20177;-68
2023/05/03 00:49:25;;;;;;;3.20;2.45;;;;;;;11.61;nan;60829.09;4973756;28;20173;-67
2023/05/03 00:51:53;;;;;;;2.63;2.05;;;;;;;11.78;nan;60906.56;4973162;28;20260;-67
2023/05/03 00:54:20;;;;;;;2.55;2.17;;;;;;;11.82;nan;60868.13;4973375;28;20170;-66
2023/05/03 00:56:46;;;;;;;3.13;2.30;;;;;;;11.48;nan;60802.25;4973060;28;20213;-65
2023/05/03 00:59:11;;;;;;;2.90;2.30;;;;;;;11.96;nan;60855.16;4972845;28;20235;-68
2023/05/03 01:01:37;;;;;;;4.00;2.20;;;;;;;11.83;nan;60871.81;4966691;28;20691;-66
2023/05/03 01:04:05;;;;;;;2.78;2.10;;;;;;;11.63;nan;60861.50;4973280;28;20239;-67
2023/05/03 01:06:36;;;;;;;4.55;2.22;;;;;;;11.90;nan;60879.66;4973018;28;20562;-65
2023/05/03 01:09:11;;;;;;;2.88;2.38;;;;;;;11.81;nan;60899.69;4972786;28;20187;-66
2023/05/03 01:11:37;;;;;;;2.58;2.00;;;;;;;11.90;nan;60825.94;4972741;28;20185;-64
2023/05/03 01:14:14;;;;;;;3.33;2.45;;;;;;;11.94;nan;60865.69;4971701;28;20208;-66
2023/05/03 01:16:46;;;;;;;3.13;2.30;;;;;;;11.66;nan;60849.50;4972506;28;20557;-66
2023/05/03 01:19:27;;;;;;;3.45;2.25;;;;;;;11.66;nan;60839.28;4972604;28;20165;-67
2023/05/03 01:22:03;;;;;;;3.38;2.42;;;;;;;11.68;nan;60841.53;4972738;28;20173;-67
2023/05/03 01:24:32;;;;;;;3.08;2.38;;;;;;;11.75;nan;60844.88;4973213;28;20158;-65
2023/05/03 01:26:58;;;;;;;4.35;2.28;;;;;;;12.05;nan;60890.31;4973102;28;20185;-65
2023/05/03 01:29:23;;;;;;;6.20;2.70;;;;;;;11.77;nan;60836.34;4972952;28;20201;-66
2023/05/03 01:31:58;;;;;;;3.08;2.40;;;;;;;11.90;nan;60812.56;4970970;28;20204;-70
2023/05/03 01:34:53;;;;;;;4.00;2.50;;;;;;;11.49;nan;60808.50;4972685;28;20165;-65
2023/05/03 01:37:20;;;;;;;5.07;2.50;;;;;;;11.59;nan;60795.59;4966210;28;20189;-69
2023/05/03 01:40:00;;;;;;;3.38;2.53;;;;;;;11.47;nan;60834.38;4972581;28;20259;-67
2023/05/03 01:42:27;;;;;;;3.80;2.40;;;;;;;11.54;nan;61007.97;4953059;28;20541;-67
2023/05/03 01:44:54;;;;;;;4.10;2.42;;;;;;;11.62;nan;60811.75;4964857;28;20178;-65
2023/05/03 01:47:20;;;;;;;2.60;2.15;;;;;;;11.76;nan;60830.66;4972752;28;20257;-67
2023/05/03 01:49:45;;;;;;;5.55;2.63;;;;;;;11.50;nan;60819.88;4972221;28;20295;-66
2023/05/03 01:52:11;;;;;;;4.82;2.30;;;;;;;11.68;nan;60842.09;4972354;28;20176;-67
2023/05/03 01:54:36;;;;;;;3.20;2.50;;;;;;;11.71;nan;60834.66;4972367;28;20185;-66
2023/05/03 01:57:02;;;;;;;4.15;2.42;;;;;;;11.49;nan;60844.31;4971238;28;20172;-65
2023/05/03 01:59:27;;;;;;;3.55;2.60;;;;;;;11.68;nan;60836.41;4971215;28;20653;-67
2023/05/03 02:01:53;;;;;;;3.28;2.55;;;;;;;11.15;nan;60849.50;4972633;28;20260;-67
2023/05/03 02:04:18;;;;;;;2.65;2.33;;;;;;;11.46;nan;60822.47;4970862;28;20220;-66
2023/05/03 02:06:43;;;;;;;4.45;2.75;;;;;;;11.46;nan;60837.81;4972574;28;20201;-67
2023/05/03 02:09:09;;;;;;;2.90;2.47;;;;;;;11.19;nan;60779.88;4971337;28;20185;-67
2023/05/03 02:11:34;;;;;;;4.35;2.67;;;;;;;11.40;nan;60829.06;4972677;28;20667;-66
2023/05/03 02:14:00;;;;;;;3.97;2.72;;;;;;;11.12;nan;60818.03;4966056;28;20276;-65
2023/05/03 02:16:26;;;;;;;5.18;2.42;;;;;;;11.30;nan;60799.94;4972909;28;20244;-66
2023/05/03 02:18:53;;;;;;;3.88;2.85;;;;;;;11.25;nan;61021.84;4972816;28;20172;-64
2023/05/03 02:21:18;;;;;;;3.05;2.30;;;;;;;11.30;nan;60807.03;4972462;28;20213;-65
2023/05/03 02:23:43;;;;;;;4.60;2.47;;;;;;;11.13;nan;60782.81;4972709;28;20276;-68
2023/05/03 02:26:09;;;;;;;2.40;2.20;;;;;;;10.99;nan;60759.97;4972373;28;20177;-65
2023/05/03 02:28:34;;;;;;;2.80;2.10;;;;;;;11.22;nan;60795.47;4972413;28;20180;-67
2023/05/03 02:31:00;;;;;;;3.55;2.53;;;;;;;11.30;nan;60838.28;4973320;28;20201;-65
2023/05/03 02:33:25;;;;;;;3.75;2.33;;;;;;;11.31;nan;60780.59;4976207;28;20236;-66
2023/05/03 02:35:51;;;;;;;2.58;2.00;;;;;;;11.35;nan;60820.91;4975838;28;20232;-65
2023/05/03 02:38:16;;;;;;;3.80;2.47;;;;;;;11.12;nan;60983.59;4975558;28;20821;-67
2023/05/03 02:40:41;;;;;;;6.35;2.40;;;;;;;11.25;nan;60814.75;4975484;28;20236;-65
2023/05/03 02:43:07;;;;;;;2.60;1.95;;;;;;;11.17;nan;60759.75;4975591;28;20169;-65
2023/05/03 02:45:35;;;;;;;2.90;2.28;;;;;;;11.01;nan;60944.22;4981439;28;20197;-66
2023/05/03 02:48:01;;;;;;;4.50;2.38;;;;;;;10.93;nan;60779.34;4973563;28;20235;-67
2023/05/03 02:50:26;;;;;;;2.85;2.10;;;;;;;10.99;nan;60749.75;4971590;28;20275;-66
2023/05/03 02:52:51;;;;;;;2.53;2.10;;;;;;;11.10;nan;60777.44;4975588;28;20173;-67
2023/05/03 02:55:17;;;;;;;2.97;2.13;;;;;;;10.93;nan;60753.78;4975303;28;20201;-67
2023/05/03 02:57:42;;;;;;;3.13;2.20;;;;;;;11.17;nan;60805.75;4974825;28;20185;-66
2023/05/03 03:00:09;;;;;;;3.00;2.20;;;;;;;10.94;nan;60780.47;4975628;28;20220;-66
2023/05/03 03:02:35;;;;;;;2.33;2.10;;;;;;;11.20;nan;60798.91;4975258;28;20551;-66
2023/05/03 03:05:00;;;;;;;2.70;2.30;;;;;;;11.06;nan;60803.59;4975257;28;20181;-65
2023/05/03 03:07:26;;;;;;;4.05;2.70;;;;;;;11.09;nan;60771.22;4975109;28;20177;-66
2023/05/03 03:09:51;;;;;;;3.58;2.80;;;;;;;11.20;nan;60783.00;4974086;28;20182;-66
2023/05/03 03:12:16;;;;;;;4.32;2.50;;;;;;;11.38;nan;60818.59;4974522;28;20197;-64
2023/05/03 03:14:44;;;;;;;2.67;2.30;;;;;;;11.11;nan;60758.13;4974128;28;20169;-64
2023/05/03 03:17:10;;;;;;;4.05;2.53;;;;;;;10.96;nan;60784.69;4975110;28;20641;-67
2023/05/03 03:19:35;;;;;;;5.50;2.80;;;;;;;11.15;nan;60757.50;4974959;28;20228;-66
2023/05/03 03:22:00;;;;;;;3.10;2.53;;;;;;;11.10;nan;60989.03;4968802;28;20186;-66
2023/05/03 03:24:26;;;;;;;3.55;2.42;;;;;;;10.77;nan;60766.47;4972009;28;20538;-65
2023/05/03 03:26:51;;;;;;;7.95;3.15;;;;;;;10.83;nan;60770.09;4971298;28;20173;-66
2023/05/03 03:29:17;;;;;;;4.32;2.83;;;;;;;10.87;nan;60782.81;4974563;28;20177;-65
2023/05/03 03:31:42;;;;;;;4.03;3.10;;;;;;;11.19;nan;60800.34;4973758;28;20563;-66
2023/05/03 03:34:11;;;;;;;3.53;2.88;;;;;;;11.07;nan;60779.75;4974553;28;20205;-66
2023/05/03 03:36:38;;;;;;;4.72;3.00;;;;;;;10.85;nan;60808.66;4974769;28;20225;-65
2023/05/03 03:39:03;;;;;;;4.20;2.85;;;;;;;10.94;nan;60821.34;4974440;28;20177;-66
2023/05/03 03:41:29;;;;;;;4.67;3.07;;;;;;;10.77;nan;60824.66;4973902;28;20188;-66
2023/05/03 03:43:54;;;;;;;3.10;2.70;;;;;;;10.85;nan;60777.44;4977163;28;20182;-65
2023/05/03 03:46:20;;;;;;;5.25;2.92;;;;;;;10.78;nan;60795.69;4977004;28;20229;-65
2023/05/03 03:48:45;;;;;;;3.95;2.63;;;;;;;10.64;nan;60752.41;4974565;28;20181;-66
2023/05/03 03:51:11;;;;;;;3.63;2.80;;;;;;;11.02;nan;60776.69;4974669;28;20170;-67
2023/05/03 03:53:36;;;;;;;4.18;2.88;;;;;;;10.90;nan;61002.81;4974502;28;20614;-65
2023/05/03 03:56:01;;;;;;;4.28;2.90;;;;;;;10.85;nan;60969.63;4973790;28;20663;-66
2023/05/03 03:58:27;;;;;;;4.40;2.70;;;;;;;11.11;nan;60793.91;4972519;28;20225;-67
2023/05/03 04:00:52;;;;;;;4.85;3.45;;;;;;;10.84;nan;60764.13;4967870;28;20557;-66
2023/05/03 04:03:18;;;;;;;4.73;3.20;;;;;;;10.93;nan;61001.66;4974217;28;20204;-65
2023/05/03 04:05:43;;;;;;;5.25;2.88;;;;;;;10.81;nan;60726.97;4974092;28;20323;-67
2023/05/03 04:08:08;;;;;;;5.63;3.10;;;;;;;10.85;nan;60984.41;4974168;28;20268;-67
2023/05/03 04:10:34;;;;;;;4.10;3.10;;;;;;;10.76;nan;60747.47;4973783;28;20571;-66
2023/05/03 04:12:59;;;;;;;4.70;3.00;;;;;;;11.00;nan;60766.78;4973318;28;20177;-66
2023/05/03 04:15:25;;;;;;;4.17;2.80;;;;;;;11.07;nan;60774.06;4973668;28;20688;-66
2023/05/03 04:17:50;;;;;;;4.47;3.43;;;;;;;10.74;nan;60768.19;4973960;28;20192;-66
2023/05/03 04:20:16;;;;;;;2.90;2.47;;;;;;;10.86;nan;60945.22;4973670;28;20228;-66
2023/05/03 04:22:42;;;;;;;4.37;2.83;;;;;;;11.05;nan;60759.06;4973778;28;20185;-67
2023/05/03 04:25:12;;;;;;;5.33;3.73;;;;;;;10.80;nan;60751.38;4973183;28;20180;-68
2023/05/03 04:27:38;;;;;;;3.73;2.80;;;;;;;10.94;nan;60774.78;4973574;28;20173;-67
2023/05/03 04:30:05;;;;;;;4.77;3.30;;;;;;;10.78;nan;60733.81;4973342;28;20192;-69
2023/05/03 04:32:36;;;;;;;4.40;3.30;;;;;;;11.11;nan;60747.31;4973496;28;20689;-69
2023/05/03 04:35:08;;;;;;;4.17;2.80;;;;;;;11.05;nan;60720.72;4973502;28;20205;-64
2023/05/03 04:37:34;;;;;;;5.07;3.80;;;;;;;10.84;nan;60709.91;4973613;28;20176;-67
2023/05/03 04:40:00;;;;;;;4.67;3.30;;;;;;;10.71;nan;60692.75;4973187;28;20224;-67
2023/05/03 04:42:25;;;;;;;8.77;3.50;;;;;;;11.13;nan;60729.69;4974999;28;20201;-65
2023/05/03 04:44:51;;;;;;;7.13;3.33;;;;;;;10.94;nan;60703.81;4991840;28;20539;-69
2023/05/03 04:47:17;;;;;;;4.27;3.07;;;;;;;10.51;nan;60640.78;4972594;28;20185;-67
2023/05/03 04:49:43;;;;;;;4.80;3.10;;;;;;;10.89;nan;60657.31;4971957;28;20165;-71
2023/05/03 04:52:09;;;;;;;4.67;3.27;;;;;;;10.94;nan;60570.38;4972697;28;20192;-67
2023/05/03 04:54:34;;;;;;;8.43;3.70;;;;;;;10.72;nan;60571.84;4971196;28;20304;-66
2023/05/03 04:57:00;;;;;;;6.20;4.00;;;;;;;10.77;nan;60551.34;4972417;28;20193;-66
2023/05/03 04:59:25;;;;;;;5.13;3.40;;;;;;;10.90;nan;60461.72;4972474;28;20297;-67
2023/05/03 05:01:51;;;;;;;6.40;3.87;;;;;;;10.91;nan;60211.91;4972324;28;20768;-66
2023/05/03 05:04:16;;;;;;;7.43;3.73;;;;;;;10.48;nan;60045.13;4975334;28;20186;-66
2023/05/03 05:06:41;;;;;;;4.60;3.47;;;;;;;10.60;nan;59815.34;4982247;28;20188;-68
2023/05/03 05:09:20;;;;;;;7.87;4.23;;;;;;;10.49;nan;59504.53;4987071;28;20189;-69
2023/05/03 05:11:45;;;;;;;6.93;3.63;;;;;;;10.69;nan;59531.13;4992119;28;20177;-66
2023/05/03 05:14:11;;;;;;;5.03;3.50;;;;;;;10.84;nan;59517.59;4991601;28;20204;-66
2023/05/03 05:16:36;;;;;;;3.97;3.47;;;;;;;10.54;nan;59260.44;4991718;28;20323;-68
2023/05/03 05:19:02;;;;;;;6.10;3.83;;;;;;;10.67;nan;59126.13;4991562;28;20184;-67
2023/05/03 05:21:28;;;;;;;6.43;3.87;;;;;;;10.92;nan;58428.28;4991690;28;20558;-68
2023/05/03 05:23:53;;;;;;;5.17;3.43;;;;;;;10.66;nan;58734.47;4991856;28;20172;-67
2023/05/03 05:26:19;;;;;;;5.70;3.60;;;;;;;10.41;nan;58319.41;4991881;28;20214;-67
2023/05/03 05:28:44;;;;;;;8.53;3.77;;;;;;;10.39;nan;58085.13;4992030;28;20184;-68
2023/05/03 05:31:09;;;;;;;5.80;4.03;;;;;;;10.27;nan;57092.94;4991679;28;20187;-68
2023/05/03 05:33:35;;;;;;;6.80;3.43;;;;;;;10.20;nan;57414.94;4991478;28;20648;-69
2023/05/03 05:36:00;;;;;;;5.17;2.83;;;;;;;10.25;nan;58315.38;4991374;28;20208;-65
2023/05/03 05:38:26;;;;;;;6.07;3.30;;;;;;;9.94;nan;57532.94;4991571;28;20181;-67
2023/05/03 05:40:52;;;;;;;5.80;3.80;;;;;;;10.31;nan;54640.56;4991620;28;20211;-66
2023/05/03 05:43:17;;;;;;;7.80;4.77;;;;;;;10.28;nan;53574.72;4984607;28;20178;-67
2023/05/03 05:45:43;;;;;;;5.20;3.73;;;;;;;10.31;nan;56506.22;4975896;28;20758;-67
2023/05/03 05:48:08;;;;;;;6.77;4.27;;;;;;;10.64;nan;56134.91;4972589;28;20220;-69
2023/05/03 05:50:35;;;;;;;5.37;3.70;;;;;;;10.80;nan;58675.69;4972506;28;20206;-66
2023/05/03 05:53:00;;;;;;;5.43;4.00;;;;;;;10.63;nan;57310.34;4972036;28;20177;-69
2023/05/03 05:55:26;;;;;;;6.17;4.23;;;;;;;10.50;nan;57857.16;4972325;28;20204;-66
2023/05/03 05:57:52;;;;;;;6.17;4.13;;;;;;;10.26;nan;56113.53;4972721;28;20169;-66
2023/05/03 06:00:18;;;;;;;5.90;4.13;;;;;;;10.37;nan;55589.16;4972425;28;20251;-68
2023/05/03 06:02:44;;;;;;;7.20;4.40;;;;;;;10.72;nan;55632.63;4972369;28;20551;-69
2023/05/03 06:05:10;;;;;;;6.63;4.17;;;;;;;10.76;nan;55869.41;4973369;28;20260;-68
2023/05/03 06:07:36;;;;;;;8.27;3.93;;;;;;;11.11;nan;57671.44;4975763;28;20182;-66
2023/05/03 06:10:02;;;;;;;5.93;3.80;;;;;;;10.90;nan;56855.69;4975475;28;20296;-68
2023/05/03 06:12:28;;;;;;;5.93;3.97;;;;;;;11.34;nan;57946.47;4975842;28;20185;-67
2023/05/03 06:14:53;;;;;;;5.93;3.80;;;;;;;11.34;nan;58276.03;4974427;28;20185;-69
2023/05/03 06:17:21;;;;;;;6.13;3.93;;;;;;;11.81;nan;59298.72;4975920;28;20193;-68
2023/05/03 06:19:48;;;;;;;9.60;3.65;;;;;;;11.95;nan;59856.53;4972359;28;20638;-67
2023/05/03 06:22:14;;;;;;;5.70;3.97;;;;;;;11.92;nan;59778.47;4972860;28;20186;-66
2023/05/03 06:24:39;;;;;;;7.95;3.95;;;;;;;11.58;nan;59722.91;4969341;28;20194;-68
2023/05/03 06:27:04;;;;;;;7.30;4.55;;;;;;;12.21;nan;59748.56;4970254;28;20225;-66
2023/05/03 06:29:30;;;;;;;6.82;3.60;;;;;;;12.51;nan;59957.94;4967986;28;20200;-66
2023/05/03 06:31:55;;;;;;;5.45;3.85;;;;;;;12.95;nan;60432.22;4975535;28;20184;-66
2023/05/03 06:34:21;;;;;;;7.10;3.92;;;;;;;12.96;nan;60732.72;4975141;28;20221;-70
2023/05/03 06:36:47;;;;;;;7.07;4.63;;;;;;;12.73;nan;60556.84;4975286;28;20268;-70
2023/05/03 06:39:13;;;;;;;7.72;3.97;;;;;;;12.80;nan;60669.78;4974008;28;20228;-69
2023/05/03 06:41:38;;;;;;;6.18;3.80;;;;;;;12.95;nan;60555.28;4975822;28;20583;-68
2023/05/03 06:44:05;;;;;;;5.72;3.60;;;;;;;13.18;nan;60583.63;4976100;28;20180;-67
2023/05/03 06:46:30;;;;;;;6.65;4.22;;;;;;;13.24;nan;60703.19;4961196;28;20178;-69
2023/05/03 06:48:56;;;;;;;5.40;3.47;;;;;;;13.36;nan;60762.28;4961905;28;20178;-67
2023/05/03 06:51:31;;;;;;;6.28;3.83;;;;;;;13.25;nan;60714.00;4990917;28;20190;-68
2023/05/03 06:54:05;;;;;;;7.15;4.50;;;;;;;13.79;nan;60814.56;4958904;28;20209;-68
2023/05/03 06:56:31;;;;;;;5.07;3.75;;;;;;;13.91;nan;60890.22;4967319;28;20204;-68
2023/05/03 06:58:56;;;;;;;5.45;3.75;;;;;;;13.71;nan;60867.72;4974447;28;20719;-65
2023/05/03 07:01:22;;;;;;;6.90;3.70;;;;;;;14.57;nan;60974.19;4974545;28;20316;-70
2023/05/03 07:03:47;;;;;;;6.15;3.90;;;;;;;14.83;nan;61028.63;4974503;28;20640;-69
2023/05/03 07:06:12;;;;;;;6.68;4.30;;;;;;;15.50;nan;61149.31;4974704;28;20177;-68
2023/05/03 07:08:38;;;;;;;7.03;3.97;;;;;;;15.80;nan;61185.22;4974170;28;20184;-65
2023/05/03 07:11:03;;;;;;;5.38;3.55;;;;;;;16.10;nan;61265.44;4974336;28;20256;-66
2023/05/03 07:13:29;;;;;;;5.85;4.30;;;;;;;16.45;nan;61325.06;4974190;28;20181;-66
2023/05/03 07:15:55;;;;;;;6.03;3.58;;;;;;;16.58;nan;61306.25;4973745;28;20201;-67
2023/05/03 07:18:20;;;;;;;7.03;3.60;;;;;;;15.83;nan;61258.13;4973753;28;20291;-67
2023/05/03 07:20:46;;;;;;;6.50;3.40;;;;;;;15.73;nan;61221.66;4974448;28;20201;-68
2023/05/03 07:23:11;;;;;;;5.85;3.60;;;;;;;15.43;nan;61219.22;4974020;28;20177;-66
2023/05/03 07:25:38;;;;;;;4.47;3.10;;;;;;;14.85;nan;61190.31;4974144;28;20594;-66
2023/05/03 07:28:03;;;;;;;5.43;3.40;;;;;;;14.41;nan;61115.53;4973978;28;20183;-68
2023/05/03 07:30:29;;;;;;;5.43;3.40;;;;;;;14.26;nan;61074.91;4974197;28;20177;-67
2023/05/03 07:32:54;;;;;;;6.45;3.70;;;;;;;14.56;nan;61116.47;4973820;28;20629;-68
2023/05/03 07:35:21;;;;;;;7.10;4.03;;;;;;;14.68;nan;61098.59;4973261;28;20259;-67
2023/05/03 07:37:47;;;;;;;7.60;4.18;;;;;;;15.35;nan;61169.00;4972858;28;20173;-66
2023/05/03 07:40:12;;;;;;;5.70;3.42;;;;;;;15.38;nan;61182.69;4974256;28;20521;-69
2023/05/03 07:42:38;;;;;;;5.47;3.28;;;;;;;15.27;nan;61195.44;4976173;28;20205;-66
2023/05/03 07:45:04;;;;;;;5.47;3.70;;;;;;;15.49;nan;61179.09;4978337;28;20174;-68
2023/05/03 07:47:30;;;;;;;4.45;3.30;;;;;;;15.29;nan;61195.69;4970738;28;20185;-68
2023/05/03 07:49:55;;;;;;;6.00;3.80;;;;;;;14.92;nan;61117.94;4967361;28;20668;-67
2023/05/03 07:52:21;;;;;;;6.68;3.45;;;;;;;14.91;nan;61147.66;4973905;28;20177;-68
2023/05/03 07:54:46;;;;;;;6.43;3.63;;;;;;;15.41;nan;61177.78;4959905;28;20186;-70
2023/05/03 07:57:17;;;;;;;4.82;3.28;;;;;;;15.60;nan;61194.09;4957720;28;20841;-68
2023/05/03 07:59:43;;;;;;;4.28;3.33;;;;;;;15.45;nan;61192.59;4957868;28;20690;-68
2023/05/03 08:02:08;;;;;;;6.20;3.33;;;;;;;14.92;nan;61136.50;4960794;28;20268;-66
2023/05/03 08:04:34;;;;;;;5.15;3.75;;;;;;;15.12;nan;61243.41;4971675;28;20205;-69
2023/05/03 08:07:03;;;;;;;4.10;3.28;;;;;;;15.31;nan;61174.78;4974091;28;20251;-69
2023/05/03 08:09:29;;;;;;;5.90;3.97;;;;;;;15.42;nan;61196.94;4974197;28;20181;-66
2023/05/03 08:11:55;;;;;;;7.40;3.63;;;;;;;15.10;nan;61153.09;4973837;28;20263;-67
2023/05/03 08:14:22;;;;;;;5.70;3.58;;;;;;;15.02;nan;61155.50;4974275;28;20180;-67
2023/05/03 08:16:47;;;;;;;4.88;3.45;;;;;;;15.33;nan;61161.03;4973754;28;20197;-67
2023/05/03 08:19:13;;;;;;;6.07;4.22;;;;;;;14.60;nan;61234.09;4973677;28;20173;-68
2023/05/03 08:21:38;;;;;;;5.63;3.90;;;;;;;15.70;nan;61233.72;4973810;28;20300;-67
2023/05/03 08:24:07;;;;;;;5.85;3.85;;;;;;;16.27;nan;61302.13;4973827;28;20177;-66
2023/05/03 08:26:34;;;;;;;7.07;4.20;;;;;;;16.43;nan;61229.97;4973816;28;20166;-70
2023/05/03 08:29:01;;;;;;;6.05;3.92;;;;;;;16.19;nan;61300.81;4972337;28;20672;-66
2023/05/03 08:31:26;;;;;;;7.00;3.90;;;;;;;16.10;nan;61257.72;4973557;28;20261;-69
2023/05/03 08:33:52;;;;;;;6.20;3.95;;;;;;;16.51;nan;61344.16;4973613;28;20336;-67
2023/05/03 08:36:17;;;;;;;8.82;4.20;;;;;;;17.17;nan;61405.91;4973084;28;20676;-70
2023/05/03 08:38:43;;;;;;;6.60;3.63;;;;;;;17.24;nan;61382.31;4973405;28;20268;-68
2023/05/03 08:41:29;;;;;;;5.95;3.47;;;;;;;17.58;nan;61449.19;4973136;28;20660;-69
2023/05/03 08:43:56;;;;;;;6.20;3.47;;;;;;;17.73;nan;61483.13;4980182;28;20188;-69
2023/05/03 08:46:22;;;;;;;6.10;3.60;;;;;;;17.73;nan;61485.69;4973592;28;20181;-69
2023/05/03 08:48:49;;;;;;;5.88;3.75;;;;;;;17.60;nan;61423.03;4973182;28;20550;-67
2023/05/03 08:51:16;;;;;;;4.88;3.53;;;;;;;17.43;nan;61517.41;4973141;28;20618;-69
2023/05/03 08:53:42;;;;;;;4.82;3.10;;;;;;;17.56;nan;61568.31;4973048;28;20181;-66
2023/05/03 08:56:09;;;;;;;5.43;3.42;;;;;;;18.07;nan;61493.19;4972786;28;20706;-66
2023/05/03 08:58:35;;;;;;;4.40;3.08;;;;;;;18.53;nan;61549.91;4973422;28;20275;-68
2023/05/03 09:01:05;;;;;;;4.85;3.50;;;;;;;18.01;nan;61476.63;4973369;28;20169;-70
2023/05/03 09:03:31;;;;;;;5.00;2.90;;;;;;;17.19;nan;61379.22;4973178;28;20200;-69
2023/05/03 09:06:00;;;;;;;5.13;3.17;;;;;;;16.48;nan;61284.59;4972703;28;20664;-68
2023/05/03 09:08:26;;;;;;;5.80;3.30;;;;;;;16.12;nan;61270.28;4973005;28;20173;-69
2023/05/03 09:10:52;;;;;;;5.15;3.58;;;;;;;16.08;nan;61203.94;4972907;28;20224;-66
2023/05/03 09:13:18;;;;;;;3.80;3.08;;;;;;;16.30;nan;61290.63;4972682;28;20181;-68
2023/05/03 09:15:52;;;;;;;5.68;3.53;;;;;;;17.14;nan;61409.72;4972882;28;20232;-68
2023/05/03 09:18:18;;;;;;;4.15;3.13;;;;;;;17.47;nan;61436.72;4973166;28;20610;-69
2023/05/03 09:20:51;;;;;;;6.28;3.22;;;;;;;18.44;nan;61623.03;4972808;28;20260;-67
2023/05/03 09:23:29;;;;;;;5.10;3.08;;;;;;;18.42;nan;61499.19;4972535;28;20673;-66
2023/05/03 09:25:56;;;;;;;7.65;3.60;;;;;;;18.96;nan;61587.69;4973117;28;20177;-69
2023/05/03 09:28:21;;;;;;;5.90;3.35;;;;;;;19.49;nan;61651.84;4972856;28;20184;-67
2023/05/03 09:30:47;;;;;;;5.60;3.58;;;;;;;19.39;nan;61688.25;4972998;28;20174;-68
2023/05/03 09:33:21;;;;;;;4.78;3.33;;;;;;;19.08;nan;61601.31;4972994;28;20235;-68
2023/05/03 09:35:57;;;;;;;7.07;3.97;;;;;;;18.62;nan;61549.19;4972296;28;20248;-68
2023/05/03 09:38:30;;;;;;;6.05;3.75;;;;;;;18.18;nan;61486.97;4972735;28;20208;-66
2023/05/03 09:40:56;;;;;;;11.77;3.88;;;;;;;18.13;nan;61572.38;4975702;28;20176;-71
2023/05/03 09:43:22;;;;;;;4.78;3.58;;;;;;;18.09;nan;61474.75;4982273;28;20212;-67
2023/05/03 09:45:47;;;;;;;6.55;3.92;;;;;;;17.98;nan;61493.34;4976979;28;20649;-69
2023/05/03 09:48:13;;;;;;;6.40;3.78;;;;;;;17.36;nan;61372.06;4976238;28;20641;-68
2023/05/03 09:50:39;;;;;;;6.82;3.80;;;;;;;17.91;nan;61475.63;4976952;28;20240;-68
2023/05/03 09:53:06;;;;;;;3.72;3.03;;;;;;;19.08;nan;61559.88;4976320;28;20254;-68
2023/05/03 09:55:39;;;;;;;5.75;3.38;;;;;;;19.56;nan;61662.94;4976069;28;20193;-69
2023/05/03 09:58:06;;;;;;;4.35;3.17;;;;;;;20.32;nan;61763.63;4976333;28;20193;-66
2023/05/03 10:00:40;;;;;;;5.80;3.53;;;;;;;19.93;nan;61706.94;4976246;28;20170;-69
2023/05/03 10:03:11;;;;;;;5.60;3.58;;;;;;;20.18;nan;61675.63;4976480;28;20651;-68
2023/05/03 10:05:43;;;;;;;5.40;3.83;;;;;;;19.82;nan;61663.34;4976072;28;20255;-67
2023/05/03 10:08:11;;;;;;;6.38;4.30;;;;;;;19.89;nan;61707.59;4976075;28;20177;-65
2023/05/03 10:10:39;;;;;;;6.07;4.20;;;;;;;19.75;nan;61707.25;4974941;28;20186;-69
2023/05/03 10:13:04;;;;;;;6.68;3.67;;;;;;;19.19;nan;61623.56;4976208;28;20165;-62
2023/05/03 10:15:30;;;;;;;5.85;3.50;;;;;;;19.05;nan;61568.84;4976101;28;20217;-61
2023/05/03 10:18:01;;;;;;;5.90;3.90;;;;;;;18.56;nan;61537.22;4976242;28;20536;-61
2023/05/03 10:20:39;;;;;;;6.22;3.53;;;;;;;18.76;nan;61570.22;4976081;28;20206;-62
2023/05/03 10:23:04;;;;;;;5.80;3.72;;;;;;;18.30;nan;61497.97;4975797;28;20173;-61
2023/05/03 10:25:31;;;;;;;6.25;4.20;;;;;;;17.62;nan;61442.81;4975450;28;20188;-62
2023/05/03 10:28:04;;;;;;;5.15;3.65;;;;;;;17.75;nan;61454.38;4975743;28;20169;-61
2023/05/03 10:30:31;;;;;;;6.57;4.43;;;;;;;17.40;nan;61423.63;4975857;28;20344;-62
2023/05/03 10:32:58;;;;;;;5.90;4.00;;;;;;;17.40;nan;61588.34;4975472;28;20184;-62
2023/05/03 10:35:28;;;;;;;6.47;4.18;;;;;;;17.48;nan;61398.53;4973973;28;20209;-61
2023/05/03 10:37:57;;;;;;;6.20;4.05;;;;;;;17.92;nan;61486.53;4975316;28;20170;-61
2023/05/03 10:40:23;;;;;;;5.40;3.80;;;;;;;17.94;nan;61488.81;4974990;28;20185;-61
2023/05/03 10:42:55;;;;;;;6.55;4.22;;;;;;;18.37;nan;61547.28;4970661;28;20276;-61
2023/05/03 10:45:28;;;;;;;6.80;4.28;;;;;;;18.81;nan;61614.72;4974048;28;20193;-61
2023/05/03 10:48:11;;;;;;;5.57;3.65;;;;;;;19.01;nan;61566.91;4974948;28;20193;-61
2023/05/03 10:50:41;;;;;;;6.28;4.10;;;;;;;19.48;nan;61659.06;4974549;28;20250;-60
2023/05/03 10:53:07;;;;;;;6.93;4.43;;;;;;;19.42;nan;61642.44;4973817;28;20264;-61
2023/05/03 10:55:35;;;;;;;7.35;4.22;;;;;;;19.63;nan;61701.41;4975206;28;20649;-63
2023/05/03 10:58:02;;;;;;;8.27;3.78;;;;;;;19.86;nan;61730.13;4974718;28;20719;-61
2023/05/03 11:00:38;;;;;;;6.22;3.47;;;;;;;20.07;nan;61715.03;4974843;28;20256;-62
2023/05/03 11:03:28;;;;;;;4.65;3.63;;;;;;;19.93;nan;61735.47;4974742;28;20181;-61
2023/05/03 11:05:56;;;;;;;5.95;3.95;;;;;;;19.13;nan;61578.47;4975017;28;20252;-60
2023/05/03 11:08:24;;;;;;;4.88;3.40;;;;;;;18.62;nan;61554.94;4972234;28;20201;-61
2023/05/03 11:10:58;;;;;;;5.80;3.42;;;;;;;18.22;nan;61473.41;4975047;28;20162;-61
2023/05/03 11:13:23;;;;;;;6.15;3.85;;;;;;;17.94;nan;61519.84;4974838;28;20192;-61
2023/05/03 11:15:49;;;;;;;7.07;3.95;;;;;;;17.84;nan;61467.16;4974236;28;20216;-62
2023/05/03 11:18:15;;;;;;;4.80;3.55;;;;;;;17.40;nan;61428.78;4975074;28;20177;-61
2023/05/03 11:20:40;;;;;;;5.18;3.50;;;;;;;17.55;nan;61458.69;4973881;28;20185;-63
2023/05/03 11:23:06;;;;;;;7.78;3.70;;;;;;;17.31;nan;61439.28;4974907;28;20245;-61
2023/05/03 11:25:32;;;;;;;5.60;3.47;;;;;;;17.27;nan;61401.19;4974971;28;20206;-62
2023/05/03 11:28:03;;;;;;;6.22;3.92;;;;;;;17.43;nan;61457.47;4974936;28;20174;-63
2023/05/03 11:30:29;;;;;;;4.90;3.60;;;;;;;17.46;nan;61427.28;4974631;28;20668;-62
2023/05/03 11:32:55;;;;;;;6.47;4.32;;;;;;;17.68;nan;61483.19;4974577;28;20182;-61
2023/05/03 11:35:22;;;;;;;6.75;4.10;;;;;;;17.61;nan;61452.03;4973564;28;20198;-64
2023/05/03 11:37:48;;;;;;;5.25;3.50;;;;;;;17.79;nan;61487.91;4974780;28;20179;-62
2023/05/03 11:40:15;;;;;;;5.40;3.95;;;;;;;17.53;nan;61471.91;4974454;28;20178;-61
2023/05/03 11:42:57;;;;;;;5.10;3.60;;;;;;;17.28;nan;61391.97;4974345;28;20174;-64
2023/05/03 11:45:44;;;;;;;5.47;3.83;;;;;;;17.23;nan;61404.97;4974677;28;20173;-62
2023/05/03 11:48:11;;;;;;;5.90;3.63;;;;;;;17.16;nan;61376.38;4972817;28;20700;-60
2023/05/03 11:50:53;;;;;;;4.78;3.67;;;;;;;17.11;nan;61347.50;4973924;28;20261;-60